Time,TemperatureF,DewpointF,PressureIn,WindDirection,WindDirectionDegrees,WindSpeedMPH,WindSpeedGustMPH,Humidity,HourlyPrecipIn,Conditions,Clouds,dailyrainin,SolarRadiationWatts/m^2,SoftwareType,DateUTC
2013-07-13 00:22:00,68.0,68.0,-100.00,NNE,24,4.0,9.0,100,0.02,,,0.07,1.000000,,2013-07-13 04:22:00,
2013-07-13 00:32:00,68.0,68.0,-100.00,NNE,24,4.0,9.0,100,0.02,,,0.07,1.000000,,2013-07-13 04:32:00,
2013-07-13 00:44:00,68.0,68.0,-100.00,NNE,24,4.0,9.0,100,0.02,,,0.07,1.000000,,2013-07-13 04:44:00,
2013-07-13 00:52:00,68.0,68.0,-100.00,NNE,24,4.0,9.0,100,0.02,,,0.07,1.000000,,2013-07-13 04:52:00,
2013-07-13 01:42:00,68.0,68.0,-100.00,NE,39,5.0,9.0,100,0.01,,,0.08,1.000000,,2013-07-13 05:42:00,
2013-07-13 01:52:00,68.0,68.0,-100.00,NE,39,5.0,9.0,100,0.01,,,0.08,1.000000,,2013-07-13 05:52:00,
2013-07-13 02:32:00,68.0,68.0,-100.00,NE,48,7.0,11.0,100,0.01,,,0.09,1.000000,,2013-07-13 06:32:00,
2013-07-13 02:43:00,68.0,68.0,-100.00,NE,48,7.0,11.0,100,0.01,,,0.09,1.000000,,2013-07-13 06:43:00,
2013-07-13 02:52:00,68.0,68.0,-100.00,NE,48,7.0,11.0,100,0.01,,,0.09,1.000000,,2013-07-13 06:52:00,
2013-07-13 03:22:00,67.0,67.0,-100.00,NE,53,6.0,11.0,100,0.01,,,0.10,1.000000,,2013-07-13 07:22:00,
2013-07-13 03:33:00,67.0,67.0,-100.00,NE,53,6.0,11.0,100,0.01,,,0.10,1.000000,,2013-07-13 07:33:00,
2013-07-13 03:44:00,67.0,67.0,-100.00,NE,53,6.0,11.0,100,0.01,,,0.10,1.000000,,2013-07-13 07:44:00,
2013-07-13 03:53:00,67.0,67.0,-100.00,NE,53,6.0,11.0,100,0.01,,,0.10,1.000000,,2013-07-13 07:53:00,
2013-07-13 04:22:00,67.0,67.0,-100.00,East,87,3.0,9.0,100,0.01,,,0.11,1.000000,,2013-07-13 08:22:00,
2013-07-13 04:33:00,67.0,67.0,-100.00,East,87,3.0,9.0,100,0.01,,,0.11,1.000000,,2013-07-13 08:33:00,
2013-07-13 04:43:00,67.0,67.0,-100.00,East,87,3.0,9.0,100,0.01,,,0.11,1.000000,,2013-07-13 08:43:00,
2013-07-13 04:52:00,67.0,67.0,-100.00,East,87,3.0,9.0,100,0.01,,,0.11,1.000000,,2013-07-13 08:52:00,
2013-07-13 05:22:00,67.0,67.0,-100.00,East,81,8.0,13.0,100,0.01,,,0.12,1.000000,,2013-07-13 09:22:00,
2013-07-13 05:33:00,67.0,67.0,-100.00,East,81,8.0,13.0,100,0.01,,,0.12,1.000000,,2013-07-13 09:33:00,
2013-07-13 05:43:00,67.0,67.0,-100.00,East,81,8.0,13.0,100,0.01,,,0.12,1.000000,,2013-07-13 09:43:00,
2013-07-13 05:53:00,67.0,67.0,-100.00,East,81,8.0,13.0,100,0.01,,,0.12,1.000000,,2013-07-13 09:53:00,
2013-07-13 06:22:00,67.0,67.0,-100.00,NE,54,9.0,13.0,100,0.00,,,0.12,1.000000,,2013-07-13 10:22:00,
2013-07-13 06:32:00,67.0,67.0,-100.00,NE,54,9.0,13.0,100,0.00,,,0.12,1.000000,,2013-07-13 10:32:00,
2013-07-13 06:43:00,67.0,67.0,-100.00,NE,54,9.0,13.0,100,0.00,,,0.12,1.000000,,2013-07-13 10:43:00,
2013-07-13 06:52:00,67.0,67.0,-100.00,NE,54,9.0,13.0,100,0.00,,,0.12,1.000000,,2013-07-13 10:52:00,
2013-07-13 07:22:00,67.0,67.0,-100.00,ENE,57,7.0,12.0,100,0.01,,,0.13,18.000000,,2013-07-13 11:22:00,
2013-07-13 07:32:00,67.0,67.0,-100.00,ENE,57,7.0,12.0,100,0.01,,,0.13,18.000000,,2013-07-13 11:32:00,
2013-07-13 07:43:00,67.0,67.0,-100.00,ENE,57,7.0,12.0,100,0.01,,,0.13,18.000000,,2013-07-13 11:43:00,
2013-07-13 07:52:00,67.0,67.0,-100.00,ENE,57,7.0,12.0,100,0.01,,,0.13,18.000000,,2013-07-13 11:52:00,
2013-07-13 08:32:00,68.0,68.0,-100.00,ENE,76,10.0,14.0,100,0.00,,,0.13,85.000000,,2013-07-13 12:32:00,
2013-07-13 08:43:00,68.0,68.0,-100.00,ENE,76,10.0,14.0,100,0.00,,,0.13,85.000000,,2013-07-13 12:43:00,
2013-07-13 08:52:00,68.0,68.0,-100.00,ENE,76,10.0,14.0,100,0.00,,,0.13,85.000000,,2013-07-13 12:52:00,
2013-07-13 09:43:00,69.0,69.0,-100.00,ENE,76,8.0,14.0,100,0.00,,,0.13,139.000000,,2013-07-13 13:43:00,
2013-07-13 09:53:00,69.0,69.0,-100.00,ENE,76,8.0,14.0,100,0.00,,,0.13,139.000000,,2013-07-13 13:53:00,
2013-07-13 10:22:00,70.0,70.0,-100.00,ENE,59,5.0,13.0,100,0.01,,,0.14,93.000000,,2013-07-13 14:22:00,
2013-07-13 10:32:00,70.0,70.0,-100.00,ENE,59,5.0,13.0,100,0.01,,,0.14,93.000000,,2013-07-13 14:32:00,
2013-07-13 10:43:00,70.0,70.0,-100.00,ENE,59,5.0,13.0,100,0.01,,,0.14,93.000000,,2013-07-13 14:43:00,
2013-07-13 10:53:00,70.0,70.0,-100.00,ENE,59,5.0,13.0,100,0.01,,,0.14,93.000000,,2013-07-13 14:53:00,
2013-07-13 11:22:00,71.0,71.0,-100.00,ENE,70,8.0,13.0,100,0.00,,,0.14,180.000000,,2013-07-13 15:22:00,
2013-07-13 11:33:00,71.0,71.0,-100.00,ENE,70,8.0,13.0,100,0.00,,,0.14,180.000000,,2013-07-13 15:33:00,
2013-07-13 11:43:00,71.0,71.0,-100.00,ENE,70,8.0,13.0,100,0.00,,,0.14,180.000000,,2013-07-13 15:43:00,
2013-07-13 11:53:00,71.0,71.0,-100.00,ENE,70,8.0,13.0,100,0.00,,,0.14,180.000000,,2013-07-13 15:53:00,
2013-07-13 12:22:00,72.0,72.0,-100.00,East,88,6.0,16.0,100,0.00,,,0.14,217.000000,,2013-07-13 16:22:00,
2013-07-13 12:33:00,72.0,72.0,-100.00,East,88,6.0,16.0,100,0.00,,,0.14,217.000000,,2013-07-13 16:33:00,
2013-07-13 12:43:00,72.0,72.0,-100.00,East,88,6.0,16.0,100,0.00,,,0.14,217.000000,,2013-07-13 16:43:00,
2013-07-13 12:53:00,72.0,72.0,-100.00,East,88,6.0,16.0,100,0.00,,,0.14,217.000000,,2013-07-13 16:53:00,
2013-07-13 13:22:00,75.0,74.0,-100.00,East,89,8.0,14.0,96,0.01,,,0.15,337.000000,,2013-07-13 17:22:00,
2013-07-13 13:33:00,75.0,74.0,-100.00,East,89,8.0,14.0,96,0.01,,,0.15,337.000000,,2013-07-13 17:33:00,
2013-07-13 13:43:00,75.0,74.0,-100.00,East,89,8.0,14.0,96,0.01,,,0.15,337.000000,,2013-07-13 17:43:00,
2013-07-13 13:52:00,75.0,74.0,-100.00,East,89,8.0,14.0,96,0.01,,,0.15,337.000000,,2013-07-13 17:52:00,
2013-07-13 14:22:00,76.0,73.0,-100.00,ESE,111,4.0,14.0,90,0.00,,,0.15,444.000000,,2013-07-13 18:22:00,
2013-07-13 14:32:00,76.0,73.0,-100.00,ESE,111,4.0,14.0,90,0.00,,,0.15,444.000000,,2013-07-13 18:32:00,
2013-07-13 14:44:00,76.0,73.0,-100.00,ESE,111,4.0,14.0,90,0.00,,,0.15,444.000000,,2013-07-13 18:44:00,
2013-07-13 14:53:00,76.0,73.0,-100.00,ESE,111,4.0,14.0,90,0.00,,,0.15,444.000000,,2013-07-13 18:53:00,
2013-07-13 15:22:00,79.0,72.0,-100.00,SE,145,5.0,13.0,78,0.00,,,0.15,595.000000,,2013-07-13 19:22:00,
2013-07-13 15:32:00,79.0,72.0,-100.00,SE,145,5.0,13.0,78,0.00,,,0.15,595.000000,,2013-07-13 19:32:00,
2013-07-13 15:44:00,79.0,72.0,-100.00,SE,145,5.0,13.0,78,0.00,,,0.15,595.000000,,2013-07-13 19:44:00,
2013-07-13 15:52:00,79.0,72.0,-100.00,SE,145,5.0,13.0,78,0.00,,,0.15,595.000000,,2013-07-13 19:52:00,
2013-07-13 16:33:00,80.0,72.0,-100.00,SE,143,4.0,10.0,76,0.01,,,0.16,456.000000,,2013-07-13 20:33:00,
2013-07-13 16:43:00,80.0,72.0,-100.00,SE,143,4.0,10.0,76,0.01,,,0.16,456.000000,,2013-07-13 20:43:00,
2013-07-13 16:52:00,80.0,72.0,-100.00,SE,143,4.0,10.0,76,0.01,,,0.16,456.000000,,2013-07-13 20:52:00,
2013-07-13 17:32:00,80.0,72.0,-100.00,ESE,117,4.0,9.0,76,0.00,,,0.16,339.000000,,2013-07-13 21:32:00,
2013-07-13 17:43:00,80.0,72.0,-100.00,ESE,117,4.0,9.0,76,0.00,,,0.16,339.000000,,2013-07-13 21:43:00,
2013-07-13 17:53:00,80.0,72.0,-100.00,ESE,117,4.0,9.0,76,0.00,,,0.16,339.000000,,2013-07-13 21:53:00,
2013-07-13 18:22:00,81.0,73.0,-100.00,ESE,116,4.0,8.0,76,0.00,,,0.16,411.000000,,2013-07-13 22:22:00,
2013-07-13 18:32:00,81.0,73.0,-100.00,ESE,116,4.0,8.0,76,0.00,,,0.16,411.000000,,2013-07-13 22:32:00,
2013-07-13 18:43:00,81.0,73.0,-100.00,ESE,116,4.0,8.0,76,0.00,,,0.16,411.000000,,2013-07-13 22:43:00,
2013-07-13 18:53:00,81.0,73.0,-100.00,ESE,116,4.0,8.0,76,0.00,,,0.16,411.000000,,2013-07-13 22:53:00,
2013-07-13 19:32:00,78.0,75.0,-100.00,SSW,199,1.0,6.0,90,0.00,,,0.16,117.000000,,2013-07-13 23:32:00,
2013-07-13 19:42:00,78.0,75.0,-100.00,SSW,199,1.0,6.0,90,0.00,,,0.16,117.000000,,2013-07-13 23:42:00,
2013-07-13 19:53:00,78.0,75.0,-100.00,SSW,199,1.0,6.0,90,0.00,,,0.16,117.000000,,2013-07-13 23:53:00,
2013-07-13 20:33:00,74.0,74.0,-100.00,WSW,240,0.0,4.0,100,0.00,,,0.16,52.000000,,2013-07-14 00:33:00,
2013-07-13 20:42:00,74.0,74.0,-100.00,WSW,240,0.0,4.0,100,0.00,,,0.16,52.000000,,2013-07-14 00:42:00,
2013-07-13 20:53:00,74.0,74.0,-100.00,WSW,240,0.0,4.0,100,0.00,,,0.16,52.000000,,2013-07-14 00:53:00,
2013-07-13 21:22:00,71.0,71.0,-100.00,SSW,192,0.0,2.0,100,0.00,,,0.14,9.000000,,2013-07-14 01:22:00,
2013-07-13 21:32:00,71.0,71.0,-100.00,SSW,192,0.0,2.0,100,0.00,,,0.14,9.000000,,2013-07-14 01:32:00,
2013-07-13 21:43:00,71.0,71.0,-100.00,SSW,192,0.0,2.0,100,0.00,,,0.14,9.000000,,2013-07-14 01:43:00,
2013-07-13 21:52:00,71.0,71.0,-100.00,SSW,192,0.0,2.0,100,0.00,,,0.14,9.000000,,2013-07-14 01:52:00,
2013-07-13 22:22:00,71.0,71.0,-100.00,SE,141,1.0,5.0,100,0.01,,,0.13,1.000000,,2013-07-14 02:22:00,
2013-07-13 22:32:00,71.0,71.0,-100.00,SE,141,1.0,5.0,100,0.01,,,0.13,1.000000,,2013-07-14 02:32:00,
2013-07-13 22:43:00,71.0,71.0,-100.00,SE,141,1.0,5.0,100,0.01,,,0.13,1.000000,,2013-07-14 02:43:00,
2013-07-13 22:53:00,71.0,71.0,-100.00,SE,141,1.0,5.0,100,0.01,,,0.13,1.000000,,2013-07-14 02:53:00,
2013-07-13 23:22:00,72.0,72.0,-100.00,South,178,2.0,6.0,100,0.00,,,0.12,1.000000,,2013-07-14 03:22:00,
2013-07-13 23:32:00,72.0,72.0,-100.00,South,178,2.0,6.0,100,0.00,,,0.12,1.000000,,2013-07-14 03:32:00,
2013-07-13 23:43:00,72.0,72.0,-100.00,South,178,2.0,6.0,100,0.00,,,0.12,1.000000,,2013-07-14 03:43:00,
2013-07-13 23:53:00,72.0,72.0,-100.00,South,178,2.0,6.0,100,0.00,,,0.12,1.000000,,2013-07-14 03:53:00,